This is the latest recevied weather packets stored in our database for station/object SLG. If no packets are shown the sender has not sent any weather packets the latest 10 day(s).
| Time | Temp. | Humidity | Pressure | Rain* | Wind** | Luminosity | Snow |
|---|---|---|---|---|---|---|---|
| 1778077930 | 14.44° C | 76% | 1003.9 hPa | 1.27 mm | - | - | - |
| 1778076131 | 16.67° C | 63% | 1003.2 hPa | 0 mm | - | - | - |
| 1778074331 | 16.67° C | 62% | 1003.2 hPa | 0 mm | - | - | - |
| 1778072531 | 17.22° C | 62% | 1003.2 hPa | 0 mm | - | - | - |
| 1778070730 | 17.22° C | 60% | 1003.2 hPa | 0 mm | - | - | - |
| 1778068930 | 17.22° C | 59% | 1003 hPa | 0 mm | - | - | - |
| 1778067137 | 16.67° C | 61% | 1003.2 hPa | 0 mm | - | - | - |
| 1778065330 | 16.67° C | 67% | 1003.5 hPa | 0 mm | - | - | - |
| 1778061734 | 14.44° C | 74% | 1003.7 hPa | 0 mm | - | - | - |
| 1778059931 | 14.44° C | 73% | 1004 hPa | 0 mm | - | - | - |
| 1778058131 | 14.44° C | 75% | 1004.1 hPa | 0 mm | - | - | - |
| 1778056331 | 13.33° C | 82% | 1003.9 hPa | 0 mm | - | - | - |
| 1778054532 | 12.78° C | 86% | 1003.9 hPa | 0 mm | - | - | - |
| 1778052731 | 11.67° C | 89% | 1004.2 hPa | 0 mm | - | - | - |
| 1778050932 | 11.11° C | 91% | 1004.4 hPa | 0 mm | - | - | - |
| 1778049131 | 10.56° C | 91% | 1004.2 hPa | 0 mm | - | - | - |
| 1778047331 | 9.44° C | 91% | 1004 hPa | 0 mm | - | - | - |
| 1778045531 | 8.89° C | 90% | 1004.2 hPa | 0 mm | - | - | - |
| 1778043731 | 8.33° C | 89% | 1004.3 hPa | 0 mm | - | - | - |
| 1778041932 | 8.89° C | 88% | 1004.5 hPa | 0 mm | - | - | - |
| 1778040131 | 8.89° C | 88% | 1004.7 hPa | 0 mm | - | - | - |
| 1778038331 | 9.44° C | 88% | 1004.9 hPa | 0 mm | - | - | - |
| 1778036532 | 9.44° C | 88% | 1005.2 hPa | 0 mm | - | - | - |
| 1778034732 | 9.44° C | 88% | 1005.4 hPa | 0 mm | - | - | - |
| 1778032932 | 9.44° C | 88% | 1005.6 hPa | 0 mm | - | - | - |
* Rain since midnight (hover to see other rain measurements)
** Current wind speed in m/s (hover to see current wind gust speed)